createdAt,value
2017-05-03T00:00:31.519Z,10.48
2017-05-03T00:03:00.824Z,9.18
2017-05-03T00:05:30.560Z,10.50
2017-05-03T00:07:59.560Z,10.26
2017-05-03T00:10:28.804Z,10.20
2017-05-03T00:12:57.881Z,9.86
2017-05-03T00:15:27.623Z,9.72
2017-05-03T00:17:56.873Z,11.96
2017-05-03T00:20:25.839Z,10.68
2017-05-03T00:22:54.779Z,10.52
2017-05-03T00:25:24.061Z,11.10
2017-05-03T00:27:53.749Z,10.32
2017-05-03T00:30:22.686Z,8.36
2017-05-03T00:32:51.977Z,12.30
2017-05-03T00:35:20.912Z,10.12
2017-05-03T00:37:49.869Z,11.06
2017-05-03T00:40:19.138Z,11.10
2017-05-03T00:42:48.815Z,10.52
2017-05-03T00:45:17.867Z,11.30
2017-05-03T00:47:47.104Z,9.94
2017-05-03T00:50:16.134Z,12.80
2017-05-03T00:52:45.074Z,11.12
2017-05-03T00:55:14.419Z,11.20
2017-05-03T00:57:43.346Z,11.84
2017-05-03T01:00:12.305Z,11.36
2017-05-03T01:02:42.411Z,12.04
2017-05-03T01:05:11.771Z,10.36
2017-05-03T01:10:14.870Z,11.74
2017-05-03T01:12:43.826Z,10.78
2017-05-03T01:15:13.533Z,11.06
2017-05-03T01:17:43.543Z,11.18
2017-05-03T01:20:13.322Z,11.30
2017-05-03T01:22:42.839Z,11.92
2017-05-03T01:25:12.083Z,11.96
2017-05-03T01:27:41.032Z,13.84
2017-05-03T01:30:09.986Z,14.54
2017-05-03T01:32:39.219Z,12.76
2017-05-03T01:35:08.176Z,14.12
2017-05-03T01:37:37.104Z,12.16
2017-05-03T01:40:06.408Z,13.58
2017-05-03T01:42:35.372Z,12.18
2017-05-03T01:45:04.387Z,12.60
2017-05-03T01:47:33.640Z,11.78
2017-05-03T01:50:02.578Z,12.86
2017-05-03T01:52:32.268Z,14.14
2017-05-03T01:55:01.602Z,13.26
2017-05-03T01:57:31.356Z,14.64
2017-05-03T02:00:00.298Z,11.48
2017-05-03T02:02:30.319Z,12.82
2017-05-03T02:05:00.049Z,13.08
2017-05-03T02:07:28.985Z,13.16
2017-05-03T02:09:58.315Z,13.94
2017-05-03T02:12:28.001Z,13.94
2017-05-03T02:14:56.945Z,14.92
2017-05-03T02:17:26.168Z,13.44
2017-05-03T02:19:55.115Z,14.76
2017-05-03T02:22:24.197Z,14.78
2017-05-03T02:24:54.327Z,14.94
2017-05-03T02:27:23.995Z,14.08
2017-05-03T02:29:52.971Z,15.96
2017-05-03T02:32:22.311Z,15.00
2017-05-03T02:34:52.004Z,14.80
2017-05-03T02:37:20.967Z,15.98
2017-05-03T02:39:50.186Z,16.78
2017-05-03T02:42:19.127Z,15.32
2017-05-03T02:44:48.151Z,14.98
2017-05-03T02:47:17.466Z,16.06
2017-05-03T02:49:46.415Z,17.54
2017-05-03T02:52:15.372Z,17.10
2017-05-03T02:54:45.342Z,18.14
2017-05-03T02:57:14.315Z,17.90
2017-05-03T02:59:43.254Z,17.48
2017-05-03T03:02:12.555Z,17.74
2017-05-03T03:04:41.547Z,18.96
2017-05-03T03:07:10.483Z,18.78
2017-05-03T03:09:39.693Z,18.14
2017-05-03T03:12:08.635Z,19.52
2017-05-03T03:14:38.391Z,20.50
2017-05-03T03:17:07.659Z,20.46
2017-05-03T03:19:37.374Z,21.46
2017-05-03T03:22:06.406Z,23.20
2017-05-03T03:24:35.743Z,24.28
2017-05-03T03:27:04.685Z,20.76
2017-05-03T03:29:33.644Z,22.62
2017-05-03T03:32:02.925Z,23.94
2017-05-03T03:34:31.855Z,21.36
2017-05-03T03:37:00.819Z,22.96
2017-05-03T03:39:30.926Z,21.14
2017-05-03T03:41:59.884Z,22.02
2017-05-03T03:44:28.837Z,19.84
2017-05-03T03:46:58.198Z,20.90
2017-05-03T03:49:27.143Z,20.60
2017-05-03T03:51:56.142Z,22.92
2017-05-03T03:54:26.456Z,19.78
2017-05-03T03:56:55.418Z,20.68
2017-05-03T03:59:25.106Z,20.90
2017-05-03T04:01:54.462Z,22.02
2017-05-03T04:04:23.410Z,22.06
2017-05-03T04:06:53.094Z,21.82
2017-05-03T04:09:22.434Z,21.20
2017-05-03T04:11:51.388Z,20.68
2017-05-03T04:14:20.393Z,21.46
2017-05-03T04:16:49.710Z,22.28
2017-05-03T04:19:19.511Z,21.12
2017-05-03T04:21:48.464Z,20.84
2017-05-03T04:24:17.741Z,22.22
2017-05-03T04:26:46.676Z,22.16
2017-05-03T04:29:15.656Z,22.38
2017-05-03T04:31:44.982Z,22.50
2017-05-03T04:34:13.975Z,24.64
2017-05-03T04:36:43.720Z,23.00
2017-05-03T04:39:13.813Z,22.60
2017-05-03T04:41:43.538Z,25.18
2017-05-03T04:44:12.510Z,25.10
2017-05-03T04:46:43.385Z,22.00
2017-05-03T04:49:13.119Z,24.00
2017-05-03T04:51:42.078Z,23.00
2017-05-03T04:54:12.476Z,22.20
2017-05-03T04:56:42.231Z,23.96
2017-05-03T04:59:11.245Z,23.76
2017-05-03T05:01:40.659Z,26.06
2017-05-03T05:04:09.647Z,22.94
2017-05-03T05:06:38.638Z,26.78
2017-05-03T05:09:08.020Z,25.78
2017-05-03T05:11:37.011Z,23.84
2017-05-03T05:14:06.064Z,24.64
2017-05-03T05:16:35.334Z,22.72
2017-05-03T05:19:05.340Z,23.72
2017-05-03T05:21:34.361Z,21.48
2017-05-03T05:24:04.582Z,25.08
2017-05-03T05:26:33.534Z,22.44
2017-05-03T05:29:02.494Z,22.20
2017-05-03T05:31:31.948Z,23.66
2017-05-03T05:34:00.948Z,21.30
2017-05-03T05:36:30.719Z,27.62
2017-05-03T05:39:00.057Z,26.08
2017-05-03T05:41:29.752Z,23.48
2017-05-03T05:43:58.725Z,24.44
2017-05-03T05:46:28.328Z,22.80
2017-05-03T05:48:57.290Z,23.54
2017-05-03T05:51:26.284Z,22.70
2017-05-03T05:53:55.552Z,22.88
2017-05-03T05:56:25.258Z,22.06
2017-05-03T05:58:54.211Z,19.32
2017-05-03T06:01:23.554Z,16.16
2017-05-03T06:03:53.601Z,18.66
2017-05-03T06:06:22.586Z,16.60
2017-05-03T06:08:51.917Z,15.56
2017-05-03T06:11:20.867Z,16.08
2017-05-03T06:13:49.842Z,14.94
2017-05-03T06:16:19.942Z,14.90
2017-05-03T06:18:48.890Z,14.02
2017-05-03T06:21:17.840Z,14.72
2017-05-03T06:23:47.861Z,14.48
2017-05-03T06:26:16.877Z,12.62
2017-05-03T06:28:45.848Z,12.60
2017-05-03T06:31:16.113Z,12.78
2017-05-03T06:33:45.135Z,15.00
2017-05-03T06:36:14.089Z,13.28
2017-05-03T06:38:43.457Z,12.94
2017-05-03T06:41:12.408Z,13.02
2017-05-03T06:43:41.437Z,14.26
2017-05-03T06:46:10.684Z,13.64
2017-05-03T06:48:39.661Z,14.52
2017-05-03T06:51:08.651Z,15.18
2017-05-03T06:53:38.117Z,15.22
2017-05-03T06:56:07.893Z,15.26
2017-05-03T06:58:36.984Z,15.60
2017-05-03T07:01:06.272Z,14.50
2017-05-03T07:03:35.263Z,15.78
2017-05-03T07:06:04.260Z,17.44
2017-05-03T07:08:33.602Z,15.06
2017-05-03T07:11:03.310Z,14.24
2017-05-03T07:13:33.005Z,15.20
2017-05-03T07:16:02.413Z,14.80
2017-05-03T07:18:31.423Z,14.76
2017-05-03T07:21:01.128Z,15.00
2017-05-03T07:23:31.174Z,15.78
2017-05-03T07:26:00.153Z,15.54
2017-05-03T07:28:29.104Z,14.60
2017-05-03T07:30:58.515Z,15.42
2017-05-03T07:33:27.474Z,15.60
2017-05-03T07:35:56.466Z,16.76
2017-05-03T07:38:25.711Z,17.34
2017-05-03T07:40:55.435Z,14.46
2017-05-03T07:43:24.394Z,15.26
2017-05-03T07:45:53.707Z,16.88
2017-05-03T07:48:22.670Z,18.82
2017-05-03T07:50:51.637Z,16.66
2017-05-03T07:53:20.939Z,15.12
2017-05-03T07:55:49.926Z,15.76
2017-05-03T07:58:18.930Z,16.94
2017-05-03T08:00:48.198Z,16.28
2017-05-03T08:03:17.214Z,16.96
2017-05-03T08:05:46.201Z,16.08
2017-05-03T08:08:15.448Z,15.22
2017-05-03T08:10:44.430Z,15.80
2017-05-03T08:13:13.382Z,16.34
2017-05-03T08:15:42.733Z,15.20
2017-05-03T08:18:12.417Z,17.32
2017-05-03T08:20:41.398Z,14.64
2017-05-03T08:23:10.643Z,14.70
2017-05-03T08:25:40.347Z,14.08
2017-05-03T08:28:09.324Z,15.12
2017-05-03T08:30:38.577Z,15.72
2017-05-03T08:33:07.587Z,15.64
2017-05-03T08:35:36.550Z,16.88
2017-05-03T08:38:05.838Z,15.14
2017-05-03T08:40:34.801Z,14.72
2017-05-03T08:43:04.536Z,15.76
2017-05-03T08:45:33.856Z,16.06
2017-05-03T08:48:02.923Z,14.50
2017-05-03T08:50:31.881Z,15.08
2017-05-03T08:53:01.110Z,14.04
2017-05-03T08:55:30.833Z,14.82
2017-05-03T08:57:59.808Z,14.26
2017-05-03T09:00:29.095Z,14.10
2017-05-03T09:02:58.042Z,13.76
2017-05-03T09:05:27.087Z,14.12
2017-05-03T09:07:57.103Z,13.78
2017-05-03T09:10:26.785Z,13.54
2017-05-03T09:12:55.730Z,14.20
2017-05-03T09:15:25.100Z,14.28
2017-05-03T09:17:54.781Z,15.16
2017-05-03T09:20:23.832Z,13.66
2017-05-03T09:22:53.189Z,12.54
2017-05-03T09:25:22.355Z,14.48
2017-05-03T09:27:51.411Z,13.74
2017-05-03T09:30:20.682Z,12.14
2017-05-03T09:32:50.386Z,12.70
2017-05-03T09:35:20.137Z,14.10
2017-05-03T09:37:49.422Z,14.80
2017-05-03T09:40:18.386Z,13.94
2017-05-03T09:42:47.438Z,12.54
2017-05-03T09:45:16.862Z,11.50
2017-05-03T09:47:45.829Z,13.26
2017-05-03T09:50:14.796Z,11.56
2017-05-03T09:52:44.163Z,14.70
2017-05-03T09:55:13.117Z,11.80
2017-05-03T09:57:42.063Z,12.76
2017-05-03T10:00:12.057Z,12.68
2017-05-03T10:02:41.022Z,12.18
2017-05-03T10:05:10.076Z,12.54
2017-05-03T10:07:39.351Z,11.56
2017-05-03T10:10:09.084Z,11.22
2017-05-03T10:12:38.125Z,10.00
2017-05-03T10:15:07.439Z,12.00
2017-05-03T10:17:36.409Z,11.80
2017-05-03T10:20:05.363Z,12.72
2017-05-03T10:22:34.633Z,11.38
2017-05-03T10:25:03.614Z,11.84
2017-05-03T10:27:32.565Z,12.60
2017-05-03T10:30:01.958Z,12.70
2017-05-03T10:32:30.942Z,11.20
2017-05-03T10:34:59.918Z,12.48
2017-05-03T10:37:29.202Z,13.46
2017-05-03T10:39:58.895Z,14.56
2017-05-03T10:42:27.864Z,14.24
2017-05-03T10:44:57.218Z,13.64
2017-05-03T10:47:26.938Z,15.18
2017-05-03T10:49:55.881Z,16.50
2017-05-03T10:52:25.143Z,16.02
2017-05-03T10:54:54.072Z,15.76
2017-05-03T10:57:23.023Z,15.02
2017-05-03T10:59:52.378Z,15.44
2017-05-03T11:02:21.363Z,13.50
2017-05-03T11:04:50.433Z,14.24
2017-05-03T11:07:19.674Z,12.46
2017-05-03T11:09:49.391Z,13.18
2017-05-03T11:12:19.101Z,13.12
2017-05-03T11:14:48.548Z,14.36
2017-05-03T11:17:17.521Z,13.68
2017-05-03T11:19:46.523Z,14.58
2017-05-03T11:22:16.171Z,14.04
2017-05-03T11:24:45.905Z,13.38
2017-05-03T11:27:14.885Z,14.62
2017-05-03T11:29:44.952Z,15.88
2017-05-03T11:32:13.941Z,15.80
2017-05-03T11:34:42.915Z,15.94
2017-05-03T11:37:12.278Z,17.30
2017-05-03T11:39:41.248Z,14.94
2017-05-03T11:42:10.212Z,15.82
2017-05-03T11:44:39.579Z,14.72
2017-05-03T11:47:09.228Z,13.72
2017-05-03T11:49:38.194Z,13.20
2017-05-03T11:52:07.668Z,14.62
2017-05-03T11:54:37.401Z,13.94
2017-05-03T11:57:06.358Z,13.12
2017-05-03T11:59:35.625Z,13.54
2017-05-03T12:02:04.573Z,12.82
2017-05-03T12:04:34.229Z,11.00
2017-05-03T12:07:03.528Z,10.56
2017-05-03T12:09:32.482Z,11.96
2017-05-03T12:12:01.430Z,9.16
2017-05-03T12:14:30.690Z,9.52
2017-05-03T12:16:59.662Z,10.14
2017-05-03T12:19:28.614Z,9.72
2017-05-03T12:21:57.901Z,7.94
2017-05-03T12:24:26.886Z,10.22
2017-05-03T12:26:55.843Z,8.84
2017-05-03T12:29:25.179Z,10.18
2017-05-03T12:31:55.400Z,8.32
2017-05-03T12:34:24.363Z,9.30
2017-05-03T12:36:53.724Z,8.90
2017-05-03T12:39:23.497Z,10.12
2017-05-03T12:41:52.465Z,8.58
2017-05-03T12:44:22.011Z,8.46
2017-05-03T12:46:51.037Z,7.68
2017-05-03T12:49:19.984Z,8.04
2017-05-03T12:51:49.305Z,7.28
2017-05-03T12:54:18.275Z,7.32
2017-05-03T12:56:47.210Z,6.50
2017-05-03T12:59:16.613Z,8.50
2017-05-03T13:01:45.639Z,6.66
2017-05-03T13:04:14.631Z,7.32
2017-05-03T13:06:43.997Z,7.00
2017-05-03T13:09:13.701Z,9.22
2017-05-03T13:11:43.418Z,7.82
2017-05-03T13:14:12.087Z,7.32
2017-05-03T13:16:41.910Z,7.22
2017-05-03T13:19:10.871Z,7.42
2017-05-03T13:21:40.185Z,7.44
2017-05-03T13:24:09.899Z,7.16
2017-05-03T13:26:40.003Z,6.48
2017-05-03T13:29:08.994Z,7.84
2017-05-03T13:31:37.988Z,6.30
2017-05-03T13:34:08.029Z,5.68
2017-05-03T13:36:37.708Z,6.16
2017-05-03T13:39:06.710Z,6.60
2017-05-03T13:41:36.725Z,8.02
2017-05-03T13:44:05.680Z,6.48
2017-05-03T13:46:34.677Z,6.88
2017-05-03T13:49:04.093Z,6.42
2017-05-03T13:51:33.034Z,5.90
2017-05-03T13:54:02.069Z,5.74
2017-05-03T13:56:31.309Z,5.60
2017-05-03T13:59:01.029Z,5.58
2017-05-03T14:01:29.986Z,6.42
2017-05-03T14:03:59.236Z,6.02
2017-05-03T14:06:28.208Z,6.32
2017-05-03T14:08:57.159Z,6.42
2017-05-03T14:11:26.349Z,6.02
2017-05-03T14:13:55.290Z,5.72
2017-05-03T14:16:24.336Z,6.70
2017-05-03T14:18:53.917Z,5.80
2017-05-03T14:21:22.879Z,7.56
2017-05-03T14:23:51.835Z,5.88
2017-05-03T14:26:21.134Z,5.12
2017-05-03T14:28:50.126Z,4.92
2017-05-03T14:31:19.076Z,5.16
2017-05-03T14:33:48.445Z,5.98
2017-05-03T14:36:18.455Z,4.94
2017-05-03T14:38:48.552Z,5.26
2017-05-03T14:41:18.209Z,6.44
2017-05-03T14:43:47.150Z,5.02
2017-05-03T14:46:16.457Z,5.52
2017-05-03T14:48:45.451Z,6.28
2017-05-03T14:51:15.133Z,5.32
2017-05-03T14:53:44.465Z,4.48
2017-05-03T14:56:14.158Z,5.06
2017-05-03T14:58:43.123Z,4.00
2017-05-03T15:01:12.387Z,4.32
2017-05-03T15:03:41.319Z,4.28
2017-05-03T15:06:10.311Z,5.18
2017-05-03T15:08:39.574Z,5.38
2017-05-03T15:11:08.510Z,5.40
2017-05-03T15:13:37.443Z,4.64
2017-05-03T15:16:06.711Z,4.80
2017-05-03T15:18:35.700Z,5.40
2017-05-03T15:21:04.684Z,4.58
2017-05-03T15:23:34.014Z,4.80
2017-05-03T15:26:02.994Z,5.30
2017-05-03T15:28:32.707Z,3.82
2017-05-03T15:31:02.821Z,5.58
2017-05-03T15:33:31.797Z,5.12
2017-05-03T15:36:00.770Z,3.80
2017-05-03T15:38:30.066Z,4.40
2017-05-03T15:40:59.006Z,3.68
2017-05-03T15:43:28.094Z,3.50
2017-05-03T15:45:58.313Z,4.44
2017-05-03T15:48:28.094Z,3.42
2017-05-03T15:50:57.102Z,3.46
2017-05-03T15:53:26.412Z,3.48
2017-05-03T15:55:56.146Z,4.12
2017-05-03T15:58:25.095Z,4.34
2017-05-03T16:00:54.413Z,3.60
2017-05-03T16:03:23.381Z,3.30
2017-05-03T16:05:52.338Z,3.56
2017-05-03T16:08:21.702Z,3.98
2017-05-03T16:10:51.447Z,3.40
2017-05-03T16:13:20.470Z,4.22
2017-05-03T16:15:49.806Z,3.14
2017-05-03T16:18:19.511Z,2.98
2017-05-03T16:20:50.323Z,3.48
2017-05-03T16:23:19.290Z,3.66
2017-05-03T16:25:48.286Z,2.98
2017-05-03T16:28:17.577Z,3.82
2017-05-03T16:30:46.602Z,3.70
2017-05-03T16:33:15.569Z,3.56
2017-05-03T16:35:44.819Z,3.50
2017-05-03T16:38:14.535Z,2.26
2017-05-03T16:40:43.499Z,2.88
2017-05-03T16:43:12.817Z,4.00
2017-05-03T16:45:42.514Z,3.80
2017-05-03T16:48:11.494Z,3.02
2017-05-03T16:50:40.928Z,3.96
2017-05-03T16:53:10.790Z,3.62
2017-05-03T16:55:39.773Z,2.88
2017-05-03T16:58:09.078Z,3.52
2017-05-03T17:00:38.049Z,3.08
2017-05-03T17:03:07.062Z,3.20
2017-05-03T17:05:36.509Z,3.44
2017-05-03T17:08:06.214Z,2.58
2017-05-03T17:10:36.329Z,2.74
2017-05-03T17:13:06.065Z,3.48
2017-05-03T17:15:35.041Z,3.78
2017-05-03T17:18:05.054Z,3.20
2017-05-03T17:20:34.819Z,2.98
2017-05-03T17:23:03.802Z,3.66
2017-05-03T17:25:33.145Z,3.18
2017-05-03T17:28:02.107Z,4.12
2017-05-03T17:30:31.056Z,3.40
2017-05-03T17:33:00.464Z,3.34
2017-05-03T17:35:29.454Z,2.62
2017-05-03T17:37:58.493Z,3.24
2017-05-03T17:40:27.849Z,3.64
2017-05-03T17:42:56.783Z,3.14
2017-05-03T17:45:25.763Z,3.12
2017-05-03T17:47:55.027Z,3.92
2017-05-03T17:50:24.061Z,3.42
2017-05-03T17:52:53.033Z,3.76
2017-05-03T17:55:22.398Z,3.54
2017-05-03T17:57:52.128Z,2.36
2017-05-03T18:00:21.114Z,3.00
2017-05-03T18:02:50.479Z,3.90
2017-05-03T18:05:19.692Z,3.38
2017-05-03T18:07:49.784Z,4.12
2017-05-03T18:10:18.838Z,3.86
2017-05-03T18:12:47.870Z,4.16
2017-05-03T18:15:17.912Z,3.68
2017-05-03T18:17:47.680Z,4.44
2017-05-03T18:20:16.784Z,3.34
2017-05-03T18:22:46.080Z,3.32
2017-05-03T18:25:15.063Z,2.72
2017-05-03T18:27:44.047Z,3.68
2017-05-03T18:30:13.299Z,2.80
2017-05-03T18:32:42.998Z,4.10
2017-05-03T18:35:13.140Z,3.28
2017-05-03T18:37:42.170Z,3.36
2017-05-03T18:40:11.155Z,2.74
2017-05-03T18:42:40.521Z,3.40
2017-05-03T18:45:09.485Z,4.04
2017-05-03T18:47:38.539Z,3.80
2017-05-03T18:50:07.919Z,3.46
2017-05-03T18:52:36.973Z,4.00
2017-05-03T18:55:06.135Z,3.72
2017-05-03T18:57:35.451Z,3.96
2017-05-03T19:00:04.506Z,3.86
2017-05-03T19:02:33.615Z,4.16
2017-05-03T19:05:02.989Z,3.60
2017-05-03T19:07:32.142Z,3.90
2017-05-03T19:10:01.154Z,3.14
2017-05-03T19:12:31.199Z,3.48
2017-05-03T19:15:00.187Z,3.22
2017-05-03T19:17:29.275Z,3.38
2017-05-03T19:19:58.670Z,3.38
2017-05-03T19:22:28.463Z,3.08
2017-05-03T19:24:58.275Z,4.04
2017-05-03T19:27:28.243Z,3.74
2017-05-03T19:29:57.274Z,3.98
2017-05-03T19:32:26.248Z,4.84
2017-05-03T19:34:55.595Z,3.32
2017-05-03T19:37:25.321Z,4.10
2017-05-03T19:39:54.309Z,3.26
2017-05-03T19:42:23.751Z,3.50
2017-05-03T19:44:52.812Z,3.40
2017-05-03T19:47:21.858Z,3.14
2017-05-03T19:49:51.188Z,3.88
2017-05-03T19:52:20.590Z,3.50
2017-05-03T19:54:49.643Z,3.20
2017-05-03T19:57:19.008Z,3.26
2017-05-03T19:59:48.809Z,4.68
2017-05-03T20:02:17.972Z,4.42
2017-05-03T20:04:48.104Z,4.22
2017-05-03T20:07:17.874Z,3.96
2017-05-03T20:09:47.885Z,3.20
2017-05-03T20:12:17.160Z,3.64
2017-05-03T20:14:46.204Z,3.16
2017-05-03T20:17:16.872Z,3.82
2017-05-03T20:19:45.843Z,3.76
2017-05-03T20:22:15.551Z,3.86
2017-05-03T20:24:45.673Z,3.86
2017-05-03T20:27:15.383Z,3.02
2017-05-03T20:29:44.378Z,3.10
2017-05-03T20:32:14.361Z,4.00
2017-05-03T20:34:43.364Z,3.68
2017-05-03T20:37:12.428Z,2.30
2017-05-03T20:39:41.702Z,3.82
2017-05-03T20:42:10.684Z,3.46
2017-05-03T20:44:39.646Z,4.20
2017-05-03T20:47:09.666Z,3.08
2017-05-03T20:49:38.638Z,3.24
2017-05-03T20:52:07.652Z,3.10
2017-05-03T20:54:37.668Z,2.88
2017-05-03T20:57:07.340Z,3.24
2017-05-03T20:59:36.300Z,3.18
2017-05-03T21:02:07.280Z,4.58
2017-05-03T21:04:36.271Z,2.96
2017-05-03T21:07:05.240Z,4.06
2017-05-03T21:09:34.560Z,3.16
2017-05-03T21:12:03.508Z,3.28
2017-05-03T21:14:32.444Z,2.46
2017-05-03T21:17:01.999Z,3.28
2017-05-03T21:19:32.148Z,3.04
2017-05-03T21:22:02.182Z,2.66
2017-05-03T21:24:31.104Z,3.20
2017-05-03T21:27:00.871Z,3.26
2017-05-03T21:29:30.170Z,3.00
2017-05-03T21:31:59.094Z,2.26
2017-05-03T21:34:28.062Z,3.62
2017-05-03T21:36:57.415Z,3.96
2017-05-03T21:39:26.363Z,3.04
2017-05-03T21:41:55.315Z,2.90
2017-05-03T21:44:24.570Z,2.42
2017-05-03T21:46:54.284Z,2.20
2017-05-03T21:49:24.187Z,2.96
2017-05-03T21:51:54.171Z,2.40
2017-05-03T21:54:23.104Z,2.44
2017-05-03T21:56:52.815Z,2.54
2017-05-03T21:59:23.650Z,2.40
2017-05-03T22:01:52.628Z,2.00
2017-05-03T22:04:21.576Z,2.12
2017-05-03T22:06:50.868Z,2.98
2017-05-03T22:09:19.854Z,2.14
2017-05-03T22:11:48.803Z,2.00
2017-05-03T22:14:18.823Z,2.12
2017-05-03T22:16:48.567Z,2.26
2017-05-03T22:19:17.535Z,2.50
2017-05-03T22:21:47.651Z,2.34
2017-05-03T22:24:17.340Z,2.32
2017-05-03T22:26:46.362Z,2.04
2017-05-03T22:29:15.645Z,2.36
2017-05-03T22:31:45.338Z,2.44
2017-05-03T22:34:14.291Z,2.10
2017-05-03T22:36:43.547Z,2.12
2017-05-03T22:39:13.319Z,2.68
2017-05-03T22:41:42.834Z,1.80
2017-05-03T22:44:12.128Z,2.52
2017-05-03T22:46:41.088Z,2.10
2017-05-03T22:49:10.089Z,2.52
2017-05-03T22:51:39.313Z,2.40
2017-05-03T22:54:08.266Z,2.68
2017-05-03T22:56:37.224Z,2.18
2017-05-03T22:59:07.219Z,2.84
2017-05-03T23:01:36.175Z,2.36
2017-05-03T23:04:05.098Z,2.28
2017-05-03T23:06:34.316Z,2.88
2017-05-03T23:09:04.019Z,2.66
2017-05-03T23:11:34.030Z,3.12
2017-05-03T23:14:02.980Z,2.50
2017-05-03T23:16:31.910Z,2.28
2017-05-03T23:19:01.938Z,3.06
2017-05-03T23:21:31.705Z,2.56
2017-05-03T23:24:00.637Z,2.92
2017-05-03T23:26:30.648Z,2.66
2017-05-03T23:29:00.347Z,3.38
2017-05-03T23:31:29.282Z,2.62
2017-05-03T23:33:58.635Z,2.64
2017-05-03T23:36:27.565Z,2.38
2017-05-03T23:38:56.516Z,1.88
2017-05-03T23:41:25.861Z,2.94
2017-05-03T23:43:54.826Z,2.86
2017-05-03T23:46:24.511Z,2.62
2017-05-03T23:48:53.842Z,2.64
2017-05-03T23:51:23.510Z,1.78
2017-05-03T23:53:52.440Z,2.64
2017-05-03T23:56:22.434Z,2.36
2017-05-03T23:58:51.375Z,2.60
